Alborn, Minnesota
Current Conditions -  °F | °C
As of 6:36 PM on Sunday 21 Dec 2014 (Local Time) from KCOQ Reporting Station
Haze Haze  
Wind Chill: 29°   Ceiling: 400
Heat Index: 34°   Visibility: 2.5mi
Dew Point: 32°   Wind: 6mph
Humidity: 93%   Direction: 120°ESE
Pressure: 29.72"   Gusts: NA
Location:  46.97°N, 92.58°W
Report Text: KCOQ 220036Z AUTO 12005KT 2 1/2SM BR OVC004 01/00 A2972 RMK AO2
Loading
Personal Weather Stations






























Interactive Weather Map New forecast layout! Learn more

10-Day Weather Forecast

Advertisements
Track Severe Weather on mobile